sensor_id;sensor_type;location;lat;lon;timestamp;temperature;humidity
59847;DHT22;45728;48.788;2.302;2022-07-15T00:00:12;21.00;83.70
59847;DHT22;45728;48.788;2.302;2022-07-15T00:02:39;20.90;83.80
59847;DHT22;45728;48.788;2.302;2022-07-15T00:05:06;21.00;83.70
59847;DHT22;45728;48.788;2.302;2022-07-15T00:07:33;20.90;83.70
59847;DHT22;45728;48.788;2.302;2022-07-15T00:09:59;20.90;83.90
59847;DHT22;45728;48.788;2.302;2022-07-15T00:13:00;20.90;84.00
59847;DHT22;45728;48.788;2.302;2022-07-15T00:15:31;20.90;84.50
59847;DHT22;45728;48.788;2.302;2022-07-15T00:17:58;20.80;84.60
59847;DHT22;45728;48.788;2.302;2022-07-15T00:20:27;20.80;84.80
59847;DHT22;45728;48.788;2.302;2022-07-15T00:23:01;20.70;85.30
59847;DHT22;45728;48.788;2.302;2022-07-15T00:25:27;20.70;85.30
59847;DHT22;45728;48.788;2.302;2022-07-15T00:27:56;20.60;85.20
59847;DHT22;45728;48.788;2.302;2022-07-15T00:30:27;20.70;85.40
59847;DHT22;45728;48.788;2.302;2022-07-15T00:32:53;20.60;85.90
59847;DHT22;45728;48.788;2.302;2022-07-15T00:35:19;20.40;86.30
59847;DHT22;45728;48.788;2.302;2022-07-15T00:37:45;20.30;86.50
59847;DHT22;45728;48.788;2.302;2022-07-15T00:40:12;20.30;86.60
59847;DHT22;45728;48.788;2.302;2022-07-15T00:42:38;20.30;86.40
59847;DHT22;45728;48.788;2.302;2022-07-15T00:45:12;20.30;86.70
59847;DHT22;45728;48.788;2.302;2022-07-15T00:47:41;20.30;87.00
59847;DHT22;45728;48.788;2.302;2022-07-15T00:50:08;20.20;87.90
59847;DHT22;45728;48.788;2.302;2022-07-15T00:52:41;20.20;87.50
59847;DHT22;45728;48.788;2.302;2022-07-15T00:55:10;20.10;87.90
59847;DHT22;45728;48.788;2.302;2022-07-15T00:57:39;20.10;88.00
59847;DHT22;45728;48.788;2.302;2022-07-15T01:00:07;20.00;88.00
59847;DHT22;45728;48.788;2.302;2022-07-15T01:02:38;20.00;88.10
59847;DHT22;45728;48.788;2.302;2022-07-15T01:05:05;20.00;88.50
59847;DHT22;45728;48.788;2.302;2022-07-15T01:07:32;19.90;89.10
59847;DHT22;45728;48.788;2.302;2022-07-15T01:09:59;19.80;89.30
59847;DHT22;45728;48.788;2.302;2022-07-15T01:12:26;19.80;89.30
59847;DHT22;45728;48.788;2.302;2022-07-15T01:14:52;19.80;89.50
59847;DHT22;45728;48.788;2.302;2022-07-15T01:17:19;19.80;89.60
59847;DHT22;45728;48.788;2.302;2022-07-15T01:19:45;19.80;89.90
59847;DHT22;45728;48.788;2.302;2022-07-15T01:22:11;19.70;90.00
59847;DHT22;45728;48.788;2.302;2022-07-15T01:24:37;19.70;90.20
59847;DHT22;45728;48.788;2.302;2022-07-15T01:27:03;19.60;90.30
59847;DHT22;45728;48.788;2.302;2022-07-15T01:29:29;19.50;90.40
59847;DHT22;45728;48.788;2.302;2022-07-15T01:31:55;19.60;90.50
59847;DHT22;45728;48.788;2.302;2022-07-15T01:34:21;19.60;90.70
59847;DHT22;45728;48.788;2.302;2022-07-15T01:36:47;19.50;90.80
59847;DHT22;45728;48.788;2.302;2022-07-15T01:39:13;19.50;91.20
59847;DHT22;45728;48.788;2.302;2022-07-15T01:41:39;19.50;90.80
59847;DHT22;45728;48.788;2.302;2022-07-15T01:44:05;19.40;90.90
59847;DHT22;45728;48.788;2.302;2022-07-15T01:46:31;19.40;90.90
59847;DHT22;45728;48.788;2.302;2022-07-15T01:48:57;19.30;90.90
59847;DHT22;45728;48.788;2.302;2022-07-15T01:51:42;19.20;90.90
59847;DHT22;45728;48.788;2.302;2022-07-15T01:54:08;19.20;90.80
59847;DHT22;45728;48.788;2.302;2022-07-15T01:56:34;19.20;90.50
59847;DHT22;45728;48.788;2.302;2022-07-15T01:59:02;19.20;90.50
59847;DHT22;45728;48.788;2.302;2022-07-15T02:01:28;19.20;90.80
59847;DHT22;45728;48.788;2.302;2022-07-15T02:03:54;19.20;90.40
59847;DHT22;45728;48.788;2.302;2022-07-15T02:06:20;19.10;90.40
59847;DHT22;45728;48.788;2.302;2022-07-15T02:08:47;19.00;90.50
59847;DHT22;45728;48.788;2.302;2022-07-15T02:11:13;19.00;90.60
59847;DHT22;45728;48.788;2.302;2022-07-15T02:13:39;18.90;90.50
59847;DHT22;45728;48.788;2.302;2022-07-15T02:16:05;18.90;90.60
59847;DHT22;45728;48.788;2.302;2022-07-15T02:18:31;18.90;90.80
59847;DHT22;45728;48.788;2.302;2022-07-15T02:20:57;18.90;90.50
59847;DHT22;45728;48.788;2.302;2022-07-15T02:23:23;18.90;90.50
59847;DHT22;45728;48.788;2.302;2022-07-15T02:25:50;18.90;90.50
59847;DHT22;45728;48.788;2.302;2022-07-15T02:28:16;18.90;90.30
59847;DHT22;45728;48.788;2.302;2022-07-15T02:30:43;18.90;90.30
59847;DHT22;45728;48.788;2.302;2022-07-15T02:33:10;18.90;90.20
59847;DHT22;45728;48.788;2.302;2022-07-15T02:35:36;18.90;90.20
59847;DHT22;45728;48.788;2.302;2022-07-15T02:38:03;18.80;90.20
59847;DHT22;45728;48.788;2.302;2022-07-15T02:40:29;18.80;90.10
59847;DHT22;45728;48.788;2.302;2022-07-15T02:43:02;18.70;90.10
59847;DHT22;45728;48.788;2.302;2022-07-15T02:45:32;18.70;90.00
59847;DHT22;45728;48.788;2.302;2022-07-15T02:47:59;18.50;90.10
59847;DHT22;45728;48.788;2.302;2022-07-15T02:50:25;18.50;90.10
59847;DHT22;45728;48.788;2.302;2022-07-15T02:52:51;18.50;90.00
59847;DHT22;45728;48.788;2.302;2022-07-15T02:55:18;18.50;90.10
59847;DHT22;45728;48.788;2.302;2022-07-15T02:57:44;18.40;90.20
59847;DHT22;45728;48.788;2.302;2022-07-15T03:00:13;18.50;90.20
59847;DHT22;45728;48.788;2.302;2022-07-15T03:02:40;18.40;90.20
59847;DHT22;45728;48.788;2.302;2022-07-15T03:05:07;18.50;90.30
59847;DHT22;45728;48.788;2.302;2022-07-15T03:07:33;18.40;90.30
59847;DHT22;45728;48.788;2.302;2022-07-15T03:10:00;18.50;90.40
59847;DHT22;45728;48.788;2.302;2022-07-15T03:12:26;18.40;90.60
59847;DHT22;45728;48.788;2.302;2022-07-15T03:14:52;18.30;90.70
59847;DHT22;45728;48.788;2.302;2022-07-15T03:17:18;18.40;90.60
59847;DHT22;45728;48.788;2.302;2022-07-15T03:19:44;18.40;90.60
59847;DHT22;45728;48.788;2.302;2022-07-15T03:22:10;18.40;90.60
59847;DHT22;45728;48.788;2.302;2022-07-15T03:24:36;18.30;90.70
59847;DHT22;45728;48.788;2.302;2022-07-15T03:27:02;18.30;90.60
59847;DHT22;45728;48.788;2.302;2022-07-15T03:29:30;18.30;90.60
59847;DHT22;45728;48.788;2.302;2022-07-15T03:31:56;18.30;90.70
59847;DHT22;45728;48.788;2.302;2022-07-15T03:34:23;18.40;90.60
59847;DHT22;45728;48.788;2.302;2022-07-15T03:36:53;18.30;90.60
59847;DHT22;45728;48.788;2.302;2022-07-15T03:39:19;18.30;90.60
59847;DHT22;45728;48.788;2.302;2022-07-15T03:41:45;18.30;90.60
59847;DHT22;45728;48.788;2.302;2022-07-15T03:44:12;18.30;90.60
59847;DHT22;45728;48.788;2.302;2022-07-15T03:46:39;18.20;90.70
59847;DHT22;45728;48.788;2.302;2022-07-15T03:49:06;18.30;90.60
59847;DHT22;45728;48.788;2.302;2022-07-15T03:51:32;18.30;90.50
59847;DHT22;45728;48.788;2.302;2022-07-15T03:53:59;18.30;90.50
59847;DHT22;45728;48.788;2.302;2022-07-15T03:56:26;18.30;90.50
59847;DHT22;45728;48.788;2.302;2022-07-15T03:58:53;18.30;90.50
59847;DHT22;45728;48.788;2.302;2022-07-15T04:01:19;18.30;90.50
59847;DHT22;45728;48.788;2.302;2022-07-15T04:03:47;18.20;90.50
59847;DHT22;45728;48.788;2.302;2022-07-15T04:06:15;18.20;90.50
59847;DHT22;45728;48.788;2.302;2022-07-15T04:08:41;18.20;90.60
59847;DHT22;45728;48.788;2.302;2022-07-15T04:11:09;18.10;90.70
59847;DHT22;45728;48.788;2.302;2022-07-15T04:13:35;18.20;90.60
59847;DHT22;45728;48.788;2.302;2022-07-15T04:16:01;18.10;90.60
59847;DHT22;45728;48.788;2.302;2022-07-15T04:18:27;18.10;90.60
59847;DHT22;45728;48.788;2.302;2022-07-15T04:20:53;18.00;90.80
59847;DHT22;45728;48.788;2.302;2022-07-15T04:23:19;18.00;90.80
59847;DHT22;45728;48.788;2.302;2022-07-15T04:25:45;18.00;90.90
59847;DHT22;45728;48.788;2.302;2022-07-15T04:28:11;18.00;91.00
59847;DHT22;45728;48.788;2.302;2022-07-15T04:30:37;18.00;91.00
59847;DHT22;45728;48.788;2.302;2022-07-15T04:33:04;18.00;91.10
59847;DHT22;45728;48.788;2.302;2022-07-15T04:35:30;18.10;91.10
59847;DHT22;45728;48.788;2.302;2022-07-15T04:37:56;18.00;91.20
59847;DHT22;45728;48.788;2.302;2022-07-15T04:40:22;18.00;91.60
59847;DHT22;45728;48.788;2.302;2022-07-15T04:42:48;17.90;92.00
59847;DHT22;45728;48.788;2.302;2022-07-15T04:45:14;17.80;91.80
59847;DHT22;45728;48.788;2.302;2022-07-15T04:47:40;17.80;92.00
59847;DHT22;45728;48.788;2.302;2022-07-15T04:50:07;17.70;92.20
59847;DHT22;45728;48.788;2.302;2022-07-15T04:52:52;17.70;92.30
59847;DHT22;45728;48.788;2.302;2022-07-15T04:55:18;17.60;92.60
59847;DHT22;45728;48.788;2.302;2022-07-15T04:57:44;17.50;92.80
59847;DHT22;45728;48.788;2.302;2022-07-15T05:00:10;17.60;93.00
59847;DHT22;45728;48.788;2.302;2022-07-15T05:02:37;17.60;93.00
59847;DHT22;45728;48.788;2.302;2022-07-15T05:05:03;17.60;93.20
59847;DHT22;45728;48.788;2.302;2022-07-15T05:07:32;17.60;93.20
59847;DHT22;45728;48.788;2.302;2022-07-15T05:09:58;17.70;93.30
59847;DHT22;45728;48.788;2.302;2022-07-15T05:12:24;17.60;93.40
59847;DHT22;45728;48.788;2.302;2022-07-15T05:14:50;17.70;93.40
59847;DHT22;45728;48.788;2.302;2022-07-15T05:17:16;17.60;93.50
59847;DHT22;45728;48.788;2.302;2022-07-15T05:19:42;17.50;93.80
59847;DHT22;45728;48.788;2.302;2022-07-15T05:22:09;17.60;93.80
59847;DHT22;45728;48.788;2.302;2022-07-15T05:24:35;17.70;93.70
59847;DHT22;45728;48.788;2.302;2022-07-15T05:27:01;17.70;93.80
59847;DHT22;45728;48.788;2.302;2022-07-15T05:29:27;17.60;94.00
59847;DHT22;45728;48.788;2.302;2022-07-15T05:31:53;17.50;94.20
59847;DHT22;45728;48.788;2.302;2022-07-15T05:34:19;17.50;94.30
59847;DHT22;45728;48.788;2.302;2022-07-15T05:36:45;17.50;94.40
59847;DHT22;45728;48.788;2.302;2022-07-15T05:39:11;17.50;94.40
59847;DHT22;45728;48.788;2.302;2022-07-15T05:41:37;17.50;94.60
59847;DHT22;45728;48.788;2.302;2022-07-15T05:44:03;17.50;94.50
59847;DHT22;45728;48.788;2.302;2022-07-15T05:46:29;17.60;94.60
59847;DHT22;45728;48.788;2.302;2022-07-15T05:48:56;17.50;95.10
59847;DHT22;45728;48.788;2.302;2022-07-15T05:51:22;17.50;94.80
59847;DHT22;45728;48.788;2.302;2022-07-15T05:53:48;17.50;94.90
59847;DHT22;45728;48.788;2.302;2022-07-15T05:56:14;17.50;95.00
59847;DHT22;45728;48.788;2.302;2022-07-15T05:58:40;17.50;95.10
59847;DHT22;45728;48.788;2.302;2022-07-15T06:01:06;17.70;95.10
59847;DHT22;45728;48.788;2.302;2022-07-15T06:03:32;18.00;94.90
59847;DHT22;45728;48.788;2.302;2022-07-15T06:05:59;18.20;94.70
59847;DHT22;45728;48.788;2.302;2022-07-15T06:08:25;18.60;94.00
59847;DHT22;45728;48.788;2.302;2022-07-15T06:10:51;18.90;93.40
59847;DHT22;45728;48.788;2.302;2022-07-15T06:13:17;19.10;92.90
59847;DHT22;45728;48.788;2.302;2022-07-15T06:15:45;19.40;92.60
59847;DHT22;45728;48.788;2.302;2022-07-15T06:18:11;20.10;92.00
59847;DHT22;45728;48.788;2.302;2022-07-15T06:20:37;20.40;91.50
59847;DHT22;45728;48.788;2.302;2022-07-15T06:23:03;20.80;91.20
59847;DHT22;45728;48.788;2.302;2022-07-15T06:25:29;21.20;89.80
59847;DHT22;45728;48.788;2.302;2022-07-15T06:27:55;20.70;90.60
59847;DHT22;45728;48.788;2.302;2022-07-15T06:30:21;21.10;90.00
59847;DHT22;45728;48.788;2.302;2022-07-15T06:32:47;21.40;89.90
59847;DHT22;45728;48.788;2.302;2022-07-15T06:35:13;22.00;89.90
59847;DHT22;45728;48.788;2.302;2022-07-15T06:37:40;22.20;87.00
59847;DHT22;45728;48.788;2.302;2022-07-15T06:40:07;21.60;89.00
59847;DHT22;45728;48.788;2.302;2022-07-15T06:42:33;22.10;87.10
59847;DHT22;45728;48.788;2.302;2022-07-15T06:44:59;22.50;86.10
59847;DHT22;45728;48.788;2.302;2022-07-15T06:47:25;23.20;83.60
59847;DHT22;45728;48.788;2.302;2022-07-15T06:49:51;23.30;83.80
59847;DHT22;45728;48.788;2.302;2022-07-15T06:52:18;24.50;81.70
59847;DHT22;45728;48.788;2.302;2022-07-15T06:54:44;23.80;80.90
59847;DHT22;45728;48.788;2.302;2022-07-15T06:57:10;24.00;79.70
59847;DHT22;45728;48.788;2.302;2022-07-15T06:59:38;22.20;83.20
59847;DHT22;45728;48.788;2.302;2022-07-15T07:02:04;21.70;84.00
59847;DHT22;45728;48.788;2.302;2022-07-15T07:04:30;21.50;84.90
59847;DHT22;45728;48.788;2.302;2022-07-15T07:06:56;21.30;85.90
59847;DHT22;45728;48.788;2.302;2022-07-15T07:09:22;21.00;86.20
59847;DHT22;45728;48.788;2.302;2022-07-15T07:11:48;20.70;87.10
59847;DHT22;45728;48.788;2.302;2022-07-15T07:14:14;20.70;87.30
59847;DHT22;45728;48.788;2.302;2022-07-15T07:16:40;20.70;86.10
59847;DHT22;45728;48.788;2.302;2022-07-15T07:19:07;20.80;87.20
59847;DHT22;45728;48.788;2.302;2022-07-15T07:21:33;20.90;86.60
59847;DHT22;45728;48.788;2.302;2022-07-15T07:23:59;20.60;87.30
59847;DHT22;45728;48.788;2.302;2022-07-15T07:26:25;20.40;87.20
59847;DHT22;45728;48.788;2.302;2022-07-15T07:28:51;20.70;85.70
59847;DHT22;45728;48.788;2.302;2022-07-15T07:31:18;20.70;84.80
59847;DHT22;45728;48.788;2.302;2022-07-15T07:33:44;20.30;84.70
59847;DHT22;45728;48.788;2.302;2022-07-15T07:36:10;20.40;84.60
59847;DHT22;45728;48.788;2.302;2022-07-15T07:38:36;20.40;84.70
59847;DHT22;45728;48.788;2.302;2022-07-15T07:41:03;20.30;84.60
59847;DHT22;45728;48.788;2.302;2022-07-15T07:43:29;20.20;85.50
59847;DHT22;45728;48.788;2.302;2022-07-15T07:45:55;20.40;85.40
59847;DHT22;45728;48.788;2.302;2022-07-15T07:48:22;20.40;85.00
59847;DHT22;45728;48.788;2.302;2022-07-15T07:50:48;20.30;85.50
59847;DHT22;45728;48.788;2.302;2022-07-15T07:53:14;20.50;84.10
59847;DHT22;45728;48.788;2.302;2022-07-15T07:55:40;20.70;84.30
59847;DHT22;45728;48.788;2.302;2022-07-15T07:58:07;21.10;84.30
59847;DHT22;45728;48.788;2.302;2022-07-15T08:00:34;21.40;82.50
59847;DHT22;45728;48.788;2.302;2022-07-15T08:03:00;21.30;81.80
59847;DHT22;45728;48.788;2.302;2022-07-15T08:05:27;21.20;82.80
59847;DHT22;45728;48.788;2.302;2022-07-15T08:08:17;21.40;83.70
59847;DHT22;45728;48.788;2.302;2022-07-15T08:10:48;21.60;80.40
59847;DHT22;45728;48.788;2.302;2022-07-15T08:13:18;21.40;80.50
59847;DHT22;45728;48.788;2.302;2022-07-15T08:15:45;21.40;80.50
59847;DHT22;45728;48.788;2.302;2022-07-15T08:18:12;21.20;81.00
59847;DHT22;45728;48.788;2.302;2022-07-15T08:20:38;21.30;81.20
59847;DHT22;45728;48.788;2.302;2022-07-15T08:23:05;21.20;81.10
59847;DHT22;45728;48.788;2.302;2022-07-15T08:25:33;21.40;80.60
59847;DHT22;45728;48.788;2.302;2022-07-15T08:28:00;21.30;81.00
59847;DHT22;45728;48.788;2.302;2022-07-15T08:30:27;21.60;80.50
59847;DHT22;45728;48.788;2.302;2022-07-15T08:32:53;21.90;80.40
59847;DHT22;45728;48.788;2.302;2022-07-15T08:35:21;22.00;78.70
59847;DHT22;45728;48.788;2.302;2022-07-15T08:37:47;22.10;78.70
59847;DHT22;45728;48.788;2.302;2022-07-15T08:40:14;22.30;79.30
59847;DHT22;45728;48.788;2.302;2022-07-15T08:42:41;22.60;77.90
59847;DHT22;45728;48.788;2.302;2022-07-15T08:45:10;22.30;78.10
59847;DHT22;45728;48.788;2.302;2022-07-15T08:47:42;22.10;78.60
59847;DHT22;45728;48.788;2.302;2022-07-15T08:50:10;21.90;78.70
59847;DHT22;45728;48.788;2.302;2022-07-15T08:52:38;22.10;78.20
59847;DHT22;45728;48.788;2.302;2022-07-15T08:55:06;22.00;78.00
59847;DHT22;45728;48.788;2.302;2022-07-15T08:57:33;22.00;78.60
59847;DHT22;45728;48.788;2.302;2022-07-15T08:59:59;22.10;78.70
59847;DHT22;45728;48.788;2.302;2022-07-15T09:02:25;21.90;79.30
59847;DHT22;45728;48.788;2.302;2022-07-15T09:05:26;22.20;79.90
59847;DHT22;45728;48.788;2.302;2022-07-15T09:08:00;22.70;77.60
59847;DHT22;45728;48.788;2.302;2022-07-15T09:15:53;22.30;77.70
59847;DHT22;45728;48.788;2.302;2022-07-15T09:18:26;22.20;77.80
59847;DHT22;45728;48.788;2.302;2022-07-15T09:20:52;22.30;78.10
59847;DHT22;45728;48.788;2.302;2022-07-15T09:23:22;22.40;79.30
59847;DHT22;45728;48.788;2.302;2022-07-15T09:26:00;22.80;76.90
59847;DHT22;45728;48.788;2.302;2022-07-15T09:28:46;22.70;77.10
59847;DHT22;45728;48.788;2.302;2022-07-15T09:31:12;22.80;77.70
59847;DHT22;45728;48.788;2.302;2022-07-15T09:34:02;23.20;76.40
59847;DHT22;45728;48.788;2.302;2022-07-15T09:36:32;23.50;75.50
59847;DHT22;45728;48.788;2.302;2022-07-15T09:39:00;23.80;74.40
59847;DHT22;45728;48.788;2.302;2022-07-15T09:41:38;23.30;74.20
59847;DHT22;45728;48.788;2.302;2022-07-15T09:44:19;22.60;75.20
59847;DHT22;45728;48.788;2.302;2022-07-15T09:46:49;22.50;75.40
59847;DHT22;45728;48.788;2.302;2022-07-15T09:51:52;22.70;73.20
59847;DHT22;45728;48.788;2.302;2022-07-15T09:54:22;22.90;73.50
59847;DHT22;45728;48.788;2.302;2022-07-15T09:56:49;23.30;73.20
59847;DHT22;45728;48.788;2.302;2022-07-15T09:59:17;23.70;71.80
59847;DHT22;45728;48.788;2.302;2022-07-15T10:01:44;23.90;71.40
59847;DHT22;45728;48.788;2.302;2022-07-15T10:04:15;23.60;71.40
59847;DHT22;45728;48.788;2.302;2022-07-15T10:06:42;23.60;71.40
59847;DHT22;45728;48.788;2.302;2022-07-15T10:09:08;23.50;71.50
59847;DHT22;45728;48.788;2.302;2022-07-15T10:11:45;23.70;71.90
59847;DHT22;45728;48.788;2.302;2022-07-15T10:14:21;24.50;72.30
59847;DHT22;45728;48.788;2.302;2022-07-15T10:23:23;23.90;69.00
59847;DHT22;45728;48.788;2.302;2022-07-15T10:31:14;24.10;68.40
59847;DHT22;45728;48.788;2.302;2022-07-15T10:33:41;24.80;66.10
59847;DHT22;45728;48.788;2.302;2022-07-15T10:36:07;24.10;66.80
59847;DHT22;45728;48.788;2.302;2022-07-15T10:38:35;24.30;67.00
59847;DHT22;45728;48.788;2.302;2022-07-15T10:41:12;24.80;65.60
59847;DHT22;45728;48.788;2.302;2022-07-15T10:43:46;25.00;64.90
59847;DHT22;45728;48.788;2.302;2022-07-15T10:48:46;25.20;64.50
59847;DHT22;45728;48.788;2.302;2022-07-15T10:51:13;24.60;65.10
59847;DHT22;45728;48.788;2.302;2022-07-15T10:53:58;25.10;64.50
59847;DHT22;45728;48.788;2.302;2022-07-15T10:56:26;25.50;64.70
59847;DHT22;45728;48.788;2.302;2022-07-15T10:59:12;25.80;63.20
59847;DHT22;45728;48.788;2.302;2022-07-15T11:01:44;25.20;64.10
59847;DHT22;45728;48.788;2.302;2022-07-15T11:04:16;25.20;63.70
59847;DHT22;45728;48.788;2.302;2022-07-15T11:09:48;25.20;63.60
59847;DHT22;45728;48.788;2.302;2022-07-15T11:12:18;24.80;63.10
59847;DHT22;45728;48.788;2.302;2022-07-15T11:17:46;25.50;62.70
59847;DHT22;45728;48.788;2.302;2022-07-15T11:20:18;25.20;63.10
59847;DHT22;45728;48.788;2.302;2022-07-15T11:22:47;26.20;63.50
59847;DHT22;45728;48.788;2.302;2022-07-15T11:27:56;25.50;62.00
59847;DHT22;45728;48.788;2.302;2022-07-15T11:30:23;25.90;63.00
59847;DHT22;45728;48.788;2.302;2022-07-15T11:32:55;26.40;61.80
59847;DHT22;45728;48.788;2.302;2022-07-15T11:35:22;25.90;62.20
59847;DHT22;45728;48.788;2.302;2022-07-15T11:37:48;25.80;62.40
59847;DHT22;45728;48.788;2.302;2022-07-15T11:40:16;26.00;60.40
59847;DHT22;45728;48.788;2.302;2022-07-15T11:43:03;26.10;61.60
59847;DHT22;45728;48.788;2.302;2022-07-15T11:45:48;25.90;60.90
59847;DHT22;45728;48.788;2.302;2022-07-15T11:48:14;26.20;60.40
59847;DHT22;45728;48.788;2.302;2022-07-15T11:50:55;25.80;60.80
59847;DHT22;45728;48.788;2.302;2022-07-15T11:53:23;26.20;61.30
59847;DHT22;45728;48.788;2.302;2022-07-15T11:55:55;26.10;60.80
59847;DHT22;45728;48.788;2.302;2022-07-15T12:00:55;26.50;61.30
59847;DHT22;45728;48.788;2.302;2022-07-15T12:03:21;26.20;61.40
59847;DHT22;45728;48.788;2.302;2022-07-15T12:06:05;26.30;62.00
59847;DHT22;45728;48.788;2.302;2022-07-15T12:08:51;27.50;61.90
59847;DHT22;45728;48.788;2.302;2022-07-15T12:13:55;26.70;59.90
59847;DHT22;45728;48.788;2.302;2022-07-15T12:16:28;26.50;59.50
59847;DHT22;45728;48.788;2.302;2022-07-15T12:18:57;26.00;59.80
59847;DHT22;45728;48.788;2.302;2022-07-15T12:21:24;25.80;60.10
59847;DHT22;45728;48.788;2.302;2022-07-15T12:24:03;26.30;60.60
59847;DHT22;45728;48.788;2.302;2022-07-15T12:26:30;27.00;58.30
59847;DHT22;45728;48.788;2.302;2022-07-15T12:28:59;26.70;58.80
59847;DHT22;45728;48.788;2.302;2022-07-15T12:31:31;26.70;59.60
59847;DHT22;45728;48.788;2.302;2022-07-15T12:33:57;26.80;59.20
59847;DHT22;45728;48.788;2.302;2022-07-15T12:36:32;26.40;59.50
59847;DHT22;45728;48.788;2.302;2022-07-15T12:39:02;26.40;58.80
59847;DHT22;45728;48.788;2.302;2022-07-15T12:41:29;26.10;58.20
59847;DHT22;45728;48.788;2.302;2022-07-15T12:43:57;26.60;58.70
59847;DHT22;45728;48.788;2.302;2022-07-15T12:46:55;27.00;58.60
59847;DHT22;45728;48.788;2.302;2022-07-15T12:54:48;27.20;58.50
59847;DHT22;45728;48.788;2.302;2022-07-15T12:57:28;27.00;58.60
59847;DHT22;45728;48.788;2.302;2022-07-15T12:59:58;27.30;59.00
59847;DHT22;45728;48.788;2.302;2022-07-15T13:02:25;27.40;58.00
59847;DHT22;45728;48.788;2.302;2022-07-15T13:04:51;27.10;58.10
59847;DHT22;45728;48.788;2.302;2022-07-15T13:07:17;27.00;58.10
59847;DHT22;45728;48.788;2.302;2022-07-15T13:09:44;26.80;58.70
59847;DHT22;45728;48.788;2.302;2022-07-15T13:12:12;27.20;59.30
59847;DHT22;45728;48.788;2.302;2022-07-15T13:14:39;28.00;57.90
59847;DHT22;45728;48.788;2.302;2022-07-15T13:17:06;28.00;57.00
59847;DHT22;45728;48.788;2.302;2022-07-15T13:19:32;27.90;57.30
59847;DHT22;45728;48.788;2.302;2022-07-15T13:21:59;27.50;57.40
59847;DHT22;45728;48.788;2.302;2022-07-15T13:24:26;27.60;56.30
59847;DHT22;45728;48.788;2.302;2022-07-15T13:26:52;27.00;56.60
59847;DHT22;45728;48.788;2.302;2022-07-15T13:29:18;26.70;56.90
59847;DHT22;45728;48.788;2.302;2022-07-15T13:31:44;26.70;56.40
59847;DHT22;45728;48.788;2.302;2022-07-15T13:34:10;27.20;57.30
59847;DHT22;45728;48.788;2.302;2022-07-15T13:36:36;28.00;57.80
59847;DHT22;45728;48.788;2.302;2022-07-15T13:39:04;28.20;56.70
59847;DHT22;45728;48.788;2.302;2022-07-15T13:41:30;27.60;57.50
59847;DHT22;45728;48.788;2.302;2022-07-15T13:43:56;27.80;57.00
59847;DHT22;45728;48.788;2.302;2022-07-15T13:46:23;27.40;57.50
59847;DHT22;45728;48.788;2.302;2022-07-15T13:48:49;27.10;57.20
59847;DHT22;45728;48.788;2.302;2022-07-15T13:51:15;27.40;57.80
59847;DHT22;45728;48.788;2.302;2022-07-15T13:53:51;27.00;57.10
59847;DHT22;45728;48.788;2.302;2022-07-15T13:56:18;27.10;57.10
59847;DHT22;45728;48.788;2.302;2022-07-15T13:58:44;27.50;58.20
59847;DHT22;45728;48.788;2.302;2022-07-15T14:01:11;27.50;56.70
59847;DHT22;45728;48.788;2.302;2022-07-15T14:03:37;27.00;57.50
59847;DHT22;45728;48.788;2.302;2022-07-15T14:06:03;26.90;56.60
59847;DHT22;45728;48.788;2.302;2022-07-15T14:08:29;26.90;56.90
59847;DHT22;45728;48.788;2.302;2022-07-15T14:10:55;27.10;57.30
59847;DHT22;45728;48.788;2.302;2022-07-15T14:13:22;27.10;57.00
59847;DHT22;45728;48.788;2.302;2022-07-15T14:15:48;27.00;57.10
59847;DHT22;45728;48.788;2.302;2022-07-15T14:18:14;26.90;57.10
59847;DHT22;45728;48.788;2.302;2022-07-15T14:20:40;26.70;57.10
59847;DHT22;45728;48.788;2.302;2022-07-15T14:23:14;26.50;57.60
59847;DHT22;45728;48.788;2.302;2022-07-15T14:25:40;27.10;57.90
59847;DHT22;45728;48.788;2.302;2022-07-15T14:28:06;27.40;56.90
59847;DHT22;45728;48.788;2.302;2022-07-15T14:30:32;27.90;56.50
59847;DHT22;45728;48.788;2.302;2022-07-15T14:32:58;27.50;56.30
59847;DHT22;45728;48.788;2.302;2022-07-15T14:35:24;27.40;57.20
59847;DHT22;45728;48.788;2.302;2022-07-15T14:37:50;26.90;56.70
59847;DHT22;45728;48.788;2.302;2022-07-15T14:40:16;26.80;56.90
59847;DHT22;45728;48.788;2.302;2022-07-15T14:42:44;26.80;56.80
59847;DHT22;45728;48.788;2.302;2022-07-15T14:45:10;26.80;56.70
59847;DHT22;45728;48.788;2.302;2022-07-15T14:47:37;26.80;56.80
59847;DHT22;45728;48.788;2.302;2022-07-15T14:50:03;27.00;56.80
59847;DHT22;45728;48.788;2.302;2022-07-15T14:52:29;27.10;56.30
59847;DHT22;45728;48.788;2.302;2022-07-15T14:54:55;27.60;56.80
59847;DHT22;45728;48.788;2.302;2022-07-15T14:57:21;28.10;56.50
59847;DHT22;45728;48.788;2.302;2022-07-15T14:59:47;28.20;55.80
59847;DHT22;45728;48.788;2.302;2022-07-15T15:02:13;28.20;55.00
59847;DHT22;45728;48.788;2.302;2022-07-15T15:04:40;27.50;55.10
59847;DHT22;45728;48.788;2.302;2022-07-15T15:07:06;27.10;55.60
59847;DHT22;45728;48.788;2.302;2022-07-15T15:09:32;27.00;55.60
59847;DHT22;45728;48.788;2.302;2022-07-15T15:11:58;27.10;55.60
59847;DHT22;45728;48.788;2.302;2022-07-15T15:14:24;27.30;56.20
59847;DHT22;45728;48.788;2.302;2022-07-15T15:16:50;27.70;56.10
59847;DHT22;45728;48.788;2.302;2022-07-15T15:19:16;27.30;56.00
59847;DHT22;45728;48.788;2.302;2022-07-15T15:21:42;27.20;56.60
59847;DHT22;45728;48.788;2.302;2022-07-15T15:24:08;27.20;56.90
59847;DHT22;45728;48.788;2.302;2022-07-15T15:26:34;26.70;57.60
59847;DHT22;45728;48.788;2.302;2022-07-15T15:29:00;26.90;57.60
59847;DHT22;45728;48.788;2.302;2022-07-15T15:31:26;27.20;57.20
59847;DHT22;45728;48.788;2.302;2022-07-15T15:33:53;27.00;57.10
59847;DHT22;45728;48.788;2.302;2022-07-15T15:36:20;27.10;57.30
59847;DHT22;45728;48.788;2.302;2022-07-15T15:38:46;27.10;57.40
59847;DHT22;45728;48.788;2.302;2022-07-15T15:41:12;26.90;57.50
59847;DHT22;45728;48.788;2.302;2022-07-15T15:43:38;27.30;57.90
59847;DHT22;45728;48.788;2.302;2022-07-15T15:46:05;27.70;57.00
59847;DHT22;45728;48.788;2.302;2022-07-15T15:48:31;27.90;56.50
59847;DHT22;45728;48.788;2.302;2022-07-15T15:50:57;27.70;56.30
59847;DHT22;45728;48.788;2.302;2022-07-15T15:53:24;27.50;56.60
59847;DHT22;45728;48.788;2.302;2022-07-15T15:55:50;27.10;56.50
59847;DHT22;45728;48.788;2.302;2022-07-15T15:58:17;27.10;56.80
59847;DHT22;45728;48.788;2.302;2022-07-15T16:00:43;27.20;56.80
59847;DHT22;45728;48.788;2.302;2022-07-15T16:03:09;27.10;56.70
59847;DHT22;45728;48.788;2.302;2022-07-15T16:05:35;27.10;56.90
59847;DHT22;45728;48.788;2.302;2022-07-15T16:08:01;27.10;56.70
59847;DHT22;45728;48.788;2.302;2022-07-15T16:10:29;27.30;57.00
59847;DHT22;45728;48.788;2.302;2022-07-15T16:12:55;27.70;56.60
59847;DHT22;45728;48.788;2.302;2022-07-15T16:15:22;27.40;55.90